Erin, Alabama
Current Conditions -  °F | °C
As of 3:20 AM on Sunday 23 Nov 2014 (Local Time) from KANB Reporting Station
Light Rain Light Rain  
Wind Chill: 53°   Ceiling: 900
Heat Index: 53°   Visibility: 4mi
Dew Point: 51°   Wind: 10mph
Humidity: 93%   Direction: 40°NE
Pressure: 30"   Gusts: NA
Location:  33.3533°N, 85.7343°W
Report Text: KANB 230920Z AUTO 04009KT 4SM -RA BR BKN009 BKN025 OVC050 12/11 A3000 RMK AO2 RAB0857 P0001 T01170106 $
Loading
Personal Weather Stations






























Interactive Weather Map New forecast layout! Learn more

10-Day Weather Forecast

Advertisements
Track Severe Weather on mobile